sensor_id;sensor_type;location;lat;lon;timestamp;pressure;altitude;pressure_sealevel;temperature;humidity
24666;BME280;29726;53.532;-1.478;2024-01-16T00:01:35;100133.06;;;2.34;100.00
24666;BME280;29726;53.532;-1.478;2024-01-16T00:04:22;100123.25;;;2.33;100.00
24666;BME280;29726;53.532;-1.478;2024-01-16T00:07:06;100118.25;;;2.28;100.00
24666;BME280;29726;53.532;-1.478;2024-01-16T00:09:50;100122.91;;;2.31;100.00
24666;BME280;29726;53.532;-1.478;2024-01-16T00:12:36;100125.66;;;2.31;100.00
24666;BME280;29726;53.532;-1.478;2024-01-16T00:15:20;100117.03;;;2.29;100.00
24666;BME280;29726;53.532;-1.478;2024-01-16T00:18:04;100110.34;;;2.30;100.00
24666;BME280;29726;53.532;-1.478;2024-01-16T00:20:49;100109.91;;;2.31;100.00
24666;BME280;29726;53.532;-1.478;2024-01-16T00:23:33;100093.47;;;2.28;100.00
24666;BME280;29726;53.532;-1.478;2024-01-16T00:26:23;100092.25;;;2.29;100.00
24666;BME280;29726;53.532;-1.478;2024-01-16T00:29:07;100084.00;;;2.29;100.00
24666;BME280;29726;53.532;-1.478;2024-01-16T00:31:53;100084.84;;;2.26;100.00
24666;BME280;29726;53.532;-1.478;2024-01-16T00:34:37;100082.44;;;2.28;100.00
24666;BME280;29726;53.532;-1.478;2024-01-16T00:37:21;100071.94;;;2.23;100.00
24666;BME280;29726;53.532;-1.478;2024-01-16T00:40:06;100080.91;;;2.27;100.00
24666;BME280;29726;53.532;-1.478;2024-01-16T00:42:52;100079.69;;;2.28;100.00
24666;BME280;29726;53.532;-1.478;2024-01-16T00:45:37;100076.16;;;2.27;100.00
24666;BME280;29726;53.532;-1.478;2024-01-16T00:48:21;100075.03;;;2.25;100.00
24666;BME280;29726;53.532;-1.478;2024-01-16T00:51:05;100071.84;;;2.26;100.00
24666;BME280;29726;53.532;-1.478;2024-01-16T00:53:49;100067.63;;;2.22;100.00
24666;BME280;29726;53.532;-1.478;2024-01-16T00:56:35;100076.59;;;2.26;100.00
24666;BME280;29726;53.532;-1.478;2024-01-16T00:59:19;100065.22;;;2.24;100.00
24666;BME280;29726;53.532;-1.478;2024-01-16T01:02:03;100073.84;;;2.26;100.00
24666;BME280;29726;53.532;-1.478;2024-01-16T01:04:47;100060.91;;;2.23;100.00
24666;BME280;29726;53.532;-1.478;2024-01-16T01:07:31;100058.94;;;2.23;100.00
24666;BME280;29726;53.532;-1.478;2024-01-16T01:10:15;100047.56;;;2.21;100.00
24666;BME280;29726;53.532;-1.478;2024-01-16T01:12:59;100056.97;;;2.24;100.00
24666;BME280;29726;53.532;-1.478;2024-01-16T01:15:43;100039.66;;;2.23;100.00
24666;BME280;29726;53.532;-1.478;2024-01-16T01:18:27;100035.50;;;2.15;100.00
24666;BME280;29726;53.532;-1.478;2024-01-16T01:21:11;100054.63;;;2.22;100.00
24666;BME280;29726;53.532;-1.478;2024-01-16T01:23:55;100047.56;;;2.21;100.00
24666;BME280;29726;53.532;-1.478;2024-01-16T01:26:38;100054.63;;;2.22;100.00
24666;BME280;29726;53.532;-1.478;2024-01-16T01:29:22;100044.81;;;2.21;100.00
24666;BME280;29726;53.532;-1.478;2024-01-16T01:32:06;100053.84;;;2.22;100.00
24666;BME280;29726;53.532;-1.478;2024-01-16T01:34:51;100029.34;;;2.08;100.00
24666;BME280;29726;53.532;-1.478;2024-01-16T01:37:35;100032.28;;;2.17;100.00
24666;BME280;29726;53.532;-1.478;2024-01-16T01:40:19;100019.38;;;2.14;100.00
24666;BME280;29726;53.532;-1.478;2024-01-16T01:43:25;100029.91;;;2.19;100.00
24666;BME280;29726;53.532;-1.478;2024-01-16T01:46:14;100028.34;;;2.18;100.00
24666;BME280;29726;53.532;-1.478;2024-01-16T01:48:58;100024.88;;;2.14;100.00
24666;BME280;29726;53.532;-1.478;2024-01-16T01:51:43;100024.13;;;2.13;100.00
24666;BME280;29726;53.532;-1.478;2024-01-16T01:54:28;100028.78;;;2.16;100.00
24666;BME280;29726;53.532;-1.478;2024-01-16T01:57:13;100026.88;;;2.13;100.00
24666;BME280;29726;53.532;-1.478;2024-01-16T01:59:57;100031.94;;;2.15;100.00
24666;BME280;29726;53.532;-1.478;2024-01-16T02:02:42;100025.31;;;2.12;100.00
24666;BME280;29726;53.532;-1.478;2024-01-16T02:05:27;100007.47;;;2.01;100.00
24666;BME280;29726;53.532;-1.478;2024-01-16T02:08:11;100020.22;;;2.11;100.00
24666;BME280;29726;53.532;-1.478;2024-01-16T02:10:56;100009.28;;;2.07;100.00
24666;BME280;29726;53.532;-1.478;2024-01-16T02:13:40;100011.22;;;2.10;100.00
24666;BME280;29726;53.532;-1.478;2024-01-16T02:16:25;100013.53;;;2.12;100.00
24666;BME280;29726;53.532;-1.478;2024-01-16T02:19:09;100003.72;;;2.11;100.00
24666;BME280;29726;53.532;-1.478;2024-01-16T02:21:57;99997.06;;;2.08;100.00
24666;BME280;29726;53.532;-1.478;2024-01-16T02:24:43;99996.31;;;2.08;100.00
24666;BME280;29726;53.532;-1.478;2024-01-16T02:27:27;99981.34;;;2.09;100.00
24666;BME280;29726;53.532;-1.478;2024-01-16T02:30:11;99983.31;;;2.08;100.00
24666;BME280;29726;53.532;-1.478;2024-01-16T02:32:56;99969.00;;;1.97;100.00
24666;BME280;29726;53.532;-1.478;2024-01-16T02:35:39;99978.59;;;2.09;100.00
24666;BME280;29726;53.532;-1.478;2024-01-16T02:38:24;99991.94;;;2.10;100.00
24666;BME280;29726;53.532;-1.478;2024-01-16T02:41:08;99971.53;;;2.08;100.00
24666;BME280;29726;53.532;-1.478;2024-01-16T02:43:52;99964.13;;;2.05;100.00
24666;BME280;29726;53.532;-1.478;2024-01-16T02:46:36;99969.53;;;2.08;100.00
24666;BME280;29726;53.532;-1.478;2024-01-16T02:49:22;99966.88;;;2.05;100.00
24666;BME280;29726;53.532;-1.478;2024-01-16T02:52:09;99962.94;;;2.06;100.00
24666;BME280;29726;53.532;-1.478;2024-01-16T02:54:53;99966.78;;;2.08;100.00
24666;BME280;29726;53.532;-1.478;2024-01-16T02:57:38;99958.97;;;2.07;100.00
24666;BME280;29726;53.532;-1.478;2024-01-16T03:00:21;99964.03;;;2.08;100.00
24666;BME280;29726;53.532;-1.478;2024-01-16T03:03:07;99954.69;;;2.06;100.00
24666;BME280;29726;53.532;-1.478;2024-01-16T03:05:51;99953.88;;;2.05;100.00
24666;BME280;29726;53.532;-1.478;2024-01-16T03:08:35;99946.47;;;2.02;100.00
24666;BME280;29726;53.532;-1.478;2024-01-16T03:11:19;99946.41;;;2.06;100.00
24666;BME280;29726;53.532;-1.478;2024-01-16T03:14:05;99936.59;;;2.05;100.00
24666;BME280;29726;53.532;-1.478;2024-01-16T03:16:49;99935.06;;;2.04;100.00
24666;BME280;29726;53.532;-1.478;2024-01-16T03:19:33;99932.72;;;2.02;100.00
24666;BME280;29726;53.532;-1.478;2024-01-16T03:22:17;99927.22;;;2.02;100.00
24666;BME280;29726;53.532;-1.478;2024-01-16T03:25:02;99930.75;;;2.03;100.00
24666;BME280;29726;53.532;-1.478;2024-01-16T03:27:47;99918.59;;;2.00;100.00
24666;BME280;29726;53.532;-1.478;2024-01-16T03:30:31;99917.84;;;2.00;100.00
24666;BME280;29726;53.532;-1.478;2024-01-16T03:33:16;99904.44;;;2.02;100.00
24666;BME280;29726;53.532;-1.478;2024-01-16T03:36:00;99906.75;;;2.03;100.00
24666;BME280;29726;53.532;-1.478;2024-01-16T03:38:45;99888.16;;;1.91;100.00
24666;BME280;29726;53.532;-1.478;2024-01-16T03:41:28;99904.44;;;2.02;100.00
24666;BME280;29726;53.532;-1.478;2024-01-16T03:44:13;99904.00;;;2.03;100.00
24666;BME280;29726;53.532;-1.478;2024-01-16T03:46:57;99889.19;;;1.97;100.00
24666;BME280;29726;53.532;-1.478;2024-01-16T03:49:41;99873.59;;;1.91;100.00
24666;BME280;29726;53.532;-1.478;2024-01-16T03:52:25;99894.19;;;2.02;100.00
24666;BME280;29726;53.532;-1.478;2024-01-16T03:55:08;99880.88;;;2.01;100.00
24666;BME280;29726;53.532;-1.478;2024-01-16T03:57:53;99882.44;;;2.02;100.00
24666;BME280;29726;53.532;-1.478;2024-01-16T04:00:37;99875.38;;;2.01;100.00
24666;BME280;29726;53.532;-1.478;2024-01-16T04:03:21;99874.56;;;2.00;100.00
24666;BME280;29726;53.532;-1.478;2024-01-16T04:06:17;99872.19;;;2.02;100.00
24666;BME280;29726;53.532;-1.478;2024-01-16T04:09:02;99862.47;;;1.98;100.00
24666;BME280;29726;53.532;-1.478;2024-01-16T04:11:50;99872.63;;;2.01;100.00
24666;BME280;29726;53.532;-1.478;2024-01-16T04:14:34;99871.41;;;2.02;100.00
24666;BME280;29726;53.532;-1.478;2024-01-16T04:17:18;99848.06;;;1.90;100.00
24666;BME280;29726;53.532;-1.478;2024-01-16T04:20:05;99848.84;;;1.91;100.00
24666;BME280;29726;53.532;-1.478;2024-01-16T04:22:51;99860.81;;;2.00;100.00
24666;BME280;29726;53.532;-1.478;2024-01-16T04:25:35;99851.47;;;1.98;100.00
24666;BME280;29726;53.532;-1.478;2024-01-16T04:28:19;99854.91;;;2.02;100.00
24666;BME280;29726;53.532;-1.478;2024-01-16T04:31:04;99851.00;;;1.99;100.00
24666;BME280;29726;53.532;-1.478;2024-01-16T04:33:48;99842.75;;;1.99;100.00
24666;BME280;29726;53.532;-1.478;2024-01-16T04:36:32;99845.50;;;1.99;100.00
24666;BME280;29726;53.532;-1.478;2024-01-16T04:39:16;99852.22;;;1.98;100.00
24666;BME280;29726;53.532;-1.478;2024-01-16T04:42:01;99845.56;;;1.96;100.00
24666;BME280;29726;53.532;-1.478;2024-01-16T04:44:45;99845.09;;;2.01;100.00
24666;BME280;29726;53.532;-1.478;2024-01-16T04:47:29;99847.41;;;2.02;100.00
24666;BME280;29726;53.532;-1.478;2024-01-16T04:50:15;99845.09;;;2.01;100.00
24666;BME280;29726;53.532;-1.478;2024-01-16T04:52:59;99843.91;;;2.02;100.00
24666;BME280;29726;53.532;-1.478;2024-01-16T04:55:46;99828.31;;;1.95;100.00
24666;BME280;29726;53.532;-1.478;2024-01-16T04:58:30;99830.47;;;2.04;100.00
24666;BME280;29726;53.532;-1.478;2024-01-16T05:01:14;99835.19;;;2.03;100.00
24666;BME280;29726;53.532;-1.478;2024-01-16T05:03:58;99828.94;;;2.03;100.00
24666;BME280;29726;53.532;-1.478;2024-01-16T05:06:42;99829.69;;;2.03;100.00
24666;BME280;29726;53.532;-1.478;2024-01-16T05:09:26;99828.50;;;2.04;100.00
24666;BME280;29726;53.532;-1.478;2024-01-16T05:12:10;99819.47;;;2.04;100.00
24666;BME280;29726;53.532;-1.478;2024-01-16T05:14:54;99817.94;;;2.03;100.00
24666;BME280;29726;53.532;-1.478;2024-01-16T05:17:38;99816.28;;;2.05;100.00
24666;BME280;29726;53.532;-1.478;2024-01-16T05:20:22;99809.66;;;2.03;100.00
24666;BME280;29726;53.532;-1.478;2024-01-16T05:23:07;99808.03;;;2.05;100.00
24666;BME280;29726;53.532;-1.478;2024-01-16T05:25:51;99801.41;;;2.03;100.00
24666;BME280;29726;53.532;-1.478;2024-01-16T05:28:34;99804.84;;;2.07;100.00
24666;BME280;29726;53.532;-1.478;2024-01-16T05:31:18;99799.00;;;2.05;100.00
24666;BME280;29726;53.532;-1.478;2024-01-16T05:34:03;99797.81;;;2.06;100.00
24666;BME280;29726;53.532;-1.478;2024-01-16T05:36:47;99797.34;;;2.07;100.00
24666;BME280;29726;53.532;-1.478;2024-01-16T05:39:31;99793.41;;;2.08;100.00
24666;BME280;29726;53.532;-1.478;2024-01-16T05:42:15;99782.66;;;1.98;100.00
24666;BME280;29726;53.532;-1.478;2024-01-16T05:44:59;99795.75;;;2.10;100.00
24666;BME280;29726;53.532;-1.478;2024-01-16T05:47:44;99784.72;;;2.10;100.00
24666;BME280;29726;53.532;-1.478;2024-01-16T05:50:29;99781.63;;;2.08;100.00
24666;BME280;29726;53.532;-1.478;2024-01-16T05:53:14;99782.31;;;2.12;100.00
24666;BME280;29726;53.532;-1.478;2024-01-16T05:55:58;99779.22;;;2.10;100.00
24666;BME280;29726;53.532;-1.478;2024-01-16T05:58:42;99782.78;;;2.10;100.00
24666;BME280;29726;53.532;-1.478;2024-01-16T06:01:26;99787.41;;;2.13;100.00
24666;BME280;29726;53.532;-1.478;2024-01-16T06:04:11;99781.91;;;2.13;100.00
24666;BME280;29726;53.532;-1.478;2024-01-16T06:06:55;99759.97;;;2.10;100.00
24666;BME280;29726;53.532;-1.478;2024-01-16T06:09:39;99757.22;;;2.10;100.00
24666;BME280;29726;53.532;-1.478;2024-01-16T06:12:23;99754.81;;;2.12;100.00
24666;BME280;29726;53.532;-1.478;2024-01-16T06:15:08;99749.75;;;2.10;100.00
24666;BME280;29726;53.532;-1.478;2024-01-16T06:17:52;99749.97;;;2.16;100.00
24666;BME280;29726;53.532;-1.478;2024-01-16T06:20:36;99740.63;;;2.13;100.00
24666;BME280;29726;53.532;-1.478;2024-01-16T06:23:20;99744.81;;;2.18;100.00
24666;BME280;29726;53.532;-1.478;2024-01-16T06:26:07;99746.81;;;2.17;100.00
24666;BME280;29726;53.532;-1.478;2024-01-16T06:28:52;99739.31;;;2.18;100.00
24666;BME280;29726;53.532;-1.478;2024-01-16T06:31:36;99749.91;;;2.19;100.00
24666;BME280;29726;53.532;-1.478;2024-01-16T06:34:20;99746.75;;;2.21;100.00
24666;BME280;29726;53.532;-1.478;2024-01-16T06:37:04;99748.69;;;2.20;100.00
24666;BME280;29726;53.532;-1.478;2024-01-16T06:39:48;99741.25;;;2.21;100.00
24666;BME280;29726;53.532;-1.478;2024-01-16T06:42:32;99730.31;;;2.17;100.00
24666;BME280;29726;53.532;-1.478;2024-01-16T06:45:17;99724.34;;;2.19;100.00
24666;BME280;29726;53.532;-1.478;2024-01-16T06:48:03;99730.56;;;2.23;100.00
24666;BME280;29726;53.532;-1.478;2024-01-16T06:50:47;99724.72;;;2.21;100.00
24666;BME280;29726;53.532;-1.478;2024-01-16T06:53:31;99723.84;;;2.24;100.00
24666;BME280;29726;53.532;-1.478;2024-01-16T06:56:15;99699.34;;;2.13;100.00
24666;BME280;29726;53.532;-1.478;2024-01-16T06:58:59;99715.59;;;2.24;100.00
24666;BME280;29726;53.532;-1.478;2024-01-16T07:01:43;99702.59;;;2.24;100.00
24666;BME280;29726;53.532;-1.478;2024-01-16T07:04:28;99704.59;;;2.24;100.00
24666;BME280;29726;53.532;-1.478;2024-01-16T07:07:12;99707.69;;;2.26;100.00
24666;BME280;29726;53.532;-1.478;2024-01-16T07:09:56;99693.13;;;2.25;100.00
24666;BME280;29726;53.532;-1.478;2024-01-16T07:12:39;99698.22;;;2.27;100.00
24666;BME280;29726;53.532;-1.478;2024-01-16T07:15:24;99689.16;;;2.26;100.00
24666;BME280;29726;53.532;-1.478;2024-01-16T07:18:07;99693.91;;;2.26;100.00
24666;BME280;29726;53.532;-1.478;2024-01-16T07:20:51;99675.66;;;2.16;100.00
24666;BME280;29726;53.532;-1.478;2024-01-16T07:23:36;99688.75;;;2.28;100.00
24666;BME280;29726;53.532;-1.478;2024-01-16T07:26:20;99687.97;;;2.27;100.00
24666;BME280;29726;53.532;-1.478;2024-01-16T07:29:04;99685.66;;;2.26;100.00
24666;BME280;29726;53.532;-1.478;2024-01-16T07:31:48;99686.00;;;2.28;100.00
24666;BME280;29726;53.532;-1.478;2024-01-16T07:34:32;99685.22;;;2.27;100.00
24666;BME280;29726;53.532;-1.478;2024-01-16T07:37:16;99682.78;;;2.29;100.00
24666;BME280;29726;53.532;-1.478;2024-01-16T07:40:01;99683.59;;;2.30;100.00
24666;BME280;29726;53.532;-1.478;2024-01-16T07:42:45;99665.19;;;2.27;100.00
24666;BME280;29726;53.532;-1.478;2024-01-16T07:45:30;99658.88;;;2.26;100.00
24666;BME280;29726;53.532;-1.478;2024-01-16T07:48:14;99667.06;;;2.30;100.00
24666;BME280;29726;53.532;-1.478;2024-01-16T07:50:58;99665.19;;;2.27;100.00
24666;BME280;29726;53.532;-1.478;2024-01-16T07:53:42;99673.00;;;2.28;100.00
24666;BME280;29726;53.532;-1.478;2024-01-16T07:56:26;99672.91;;;2.32;100.00
24666;BME280;29726;53.532;-1.478;2024-01-16T07:59:10;99665.53;;;2.29;100.00
24666;BME280;29726;53.532;-1.478;2024-01-16T08:01:54;99658.47;;;2.28;100.00
24666;BME280;29726;53.532;-1.478;2024-01-16T08:04:38;99656.47;;;2.28;100.00
24666;BME280;29726;53.532;-1.478;2024-01-16T08:07:22;99651.31;;;2.30;100.00
24666;BME280;29726;53.532;-1.478;2024-01-16T08:10:08;99651.31;;;2.30;100.00
24666;BME280;29726;53.532;-1.478;2024-01-16T08:12:52;99644.59;;;2.31;100.00
24666;BME280;29726;53.532;-1.478;2024-01-16T08:15:36;99642.28;;;2.30;100.00
24666;BME280;29726;53.532;-1.478;2024-01-16T08:18:20;99643.50;;;2.29;100.00
24666;BME280;29726;53.532;-1.478;2024-01-16T08:21:04;99653.63;;;2.32;100.00
24666;BME280;29726;53.532;-1.478;2024-01-16T08:23:49;99620.13;;;2.21;100.00
24666;BME280;29726;53.532;-1.478;2024-01-16T08:26:33;99634.72;;;2.34;100.00
24666;BME280;29726;53.532;-1.478;2024-01-16T08:29:17;99627.22;;;2.34;100.00
24666;BME280;29726;53.532;-1.478;2024-01-16T08:32:01;99628.88;;;2.32;100.00
24666;BME280;29726;53.532;-1.478;2024-01-16T08:34:45;99606.34;;;2.21;100.00
24666;BME280;29726;53.532;-1.478;2024-01-16T08:37:29;99633.84;;;2.37;100.00
24666;BME280;29726;53.532;-1.478;2024-01-16T08:40:13;99631.94;;;2.34;100.00
24666;BME280;29726;53.532;-1.478;2024-01-16T08:42:57;99618.28;;;2.30;100.00
24666;BME280;29726;53.532;-1.478;2024-01-16T08:45:42;99619.31;;;2.36;100.00
24666;BME280;29726;53.532;-1.478;2024-01-16T08:48:26;99614.69;;;2.33;100.00
24666;BME280;29726;53.532;-1.478;2024-01-16T08:51:11;99614.22;;;2.35;100.00
24666;BME280;29726;53.532;-1.478;2024-01-16T08:53:56;99616.09;;;2.38;100.00
24666;BME280;29726;53.532;-1.478;2024-01-16T08:56:40;99618.00;;;2.41;100.00
24666;BME280;29726;53.532;-1.478;2024-01-16T08:59:25;99609.31;;;2.42;100.00
24666;BME280;29726;53.532;-1.478;2024-01-16T09:02:09;99602.69;;;2.40;100.00
24666;BME280;29726;53.532;-1.478;2024-01-16T09:04:53;99601.03;;;2.42;100.00
24666;BME280;29726;53.532;-1.478;2024-01-16T09:07:37;99590.03;;;2.42;100.00
24666;BME280;29726;53.532;-1.478;2024-01-16T09:10:21;99586.94;;;2.40;100.00
24666;BME280;29726;53.532;-1.478;2024-01-16T09:13:05;99586.06;;;2.43;100.00
24666;BME280;29726;53.532;-1.478;2024-01-16T09:15:49;99596.22;;;2.46;100.00
24666;BME280;29726;53.532;-1.478;2024-01-16T09:18:33;99598.53;;;2.48;100.00
24666;BME280;29726;53.532;-1.478;2024-01-16T09:21:17;99592.59;;;2.49;100.00
24666;BME280;29726;53.532;-1.478;2024-01-16T09:24:01;99583.56;;;2.49;100.00
24666;BME280;29726;53.532;-1.478;2024-01-16T09:26:45;99567.91;;;2.46;100.00
24666;BME280;29726;53.532;-1.478;2024-01-16T09:29:33;99575.97;;;2.53;100.00
24666;BME280;29726;53.532;-1.478;2024-01-16T09:32:17;99567.81;;;2.49;100.00
24666;BME280;29726;53.532;-1.478;2024-01-16T09:35:04;99559.13;;;2.51;100.00
24666;BME280;29726;53.532;-1.478;2024-01-16T09:37:52;99564.97;;;2.53;100.00
24666;BME280;29726;53.532;-1.478;2024-01-16T09:40:42;99567.97;;;2.58;100.00
24666;BME280;29726;53.532;-1.478;2024-01-16T09:43:27;99565.63;;;2.57;100.00
24666;BME280;29726;53.532;-1.478;2024-01-16T09:46:12;99565.09;;;2.62;100.00
24666;BME280;29726;53.532;-1.478;2024-01-16T09:48:56;99549.44;;;2.59;100.00
24666;BME280;29726;53.532;-1.478;2024-01-16T09:51:43;99559.47;;;2.65;100.00
24666;BME280;29726;53.532;-1.478;2024-01-16T09:54:27;99548.47;;;2.65;100.00
24666;BME280;29726;53.532;-1.478;2024-01-16T09:57:12;99540.19;;;2.65;100.00
24666;BME280;29726;53.532;-1.478;2024-01-16T09:59:58;99547.50;;;2.72;100.00
24666;BME280;29726;53.532;-1.478;2024-01-16T10:02:43;99541.97;;;2.72;100.00
24666;BME280;29726;53.532;-1.478;2024-01-16T10:05:30;99533.59;;;2.75;100.00
24666;BME280;29726;53.532;-1.478;2024-01-16T10:08:15;99523.38;;;2.76;100.00
24666;BME280;29726;53.532;-1.478;2024-01-16T10:10:59;99534.94;;;2.83;100.00
24666;BME280;29726;53.532;-1.478;2024-01-16T10:13:44;99520.50;;;2.79;100.00
24666;BME280;29726;53.532;-1.478;2024-01-16T10:17:03;99523.81;;;2.87;100.00
24666;BME280;29726;53.532;-1.478;2024-01-16T10:19:53;99515.09;;;2.88;100.00
24666;BME280;29726;53.532;-1.478;2024-01-16T10:22:40;99522.81;;;2.93;100.00
24666;BME280;29726;53.532;-1.478;2024-01-16T10:25:24;99510.25;;;2.92;100.00
24666;BME280;29726;53.532;-1.478;2024-01-16T10:28:08;99507.97;;;2.91;100.00
24666;BME280;29726;53.532;-1.478;2024-01-16T10:31:08;99499.56;;;2.94;100.00
24666;BME280;29726;53.532;-1.478;2024-01-16T10:33:52;99499.78;;;3.00;100.00
24666;BME280;29726;53.532;-1.478;2024-01-16T10:36:36;99499.47;;;2.98;100.00
24666;BME280;29726;53.532;-1.478;2024-01-16T10:39:20;99486.00;;;3.00;100.00
24666;BME280;29726;53.532;-1.478;2024-01-16T10:42:04;99478.41;;;3.04;100.00
24666;BME280;29726;53.532;-1.478;2024-01-16T10:44:55;99479.50;;;3.06;100.00
24666;BME280;29726;53.532;-1.478;2024-01-16T10:47:42;99485.34;;;3.08;100.00
24666;BME280;29726;53.532;-1.478;2024-01-16T10:50:26;99473.44;;;3.11;100.00
24666;BME280;29726;53.532;-1.478;2024-01-16T10:53:13;99480.81;;;3.14;100.00
24666;BME280;29726;53.532;-1.478;2024-01-16T10:56:01;99455.69;;;3.12;100.00
24666;BME280;29726;53.532;-1.478;2024-01-16T10:58:57;99459.09;;;3.16;100.00
24666;BME280;29726;53.532;-1.478;2024-01-16T11:01:50;99444.88;;;3.18;100.00
24666;BME280;29726;53.532;-1.478;2024-01-16T11:04:37;99452.25;;;3.21;100.00
24666;BME280;29726;53.532;-1.478;2024-01-16T11:07:23;99424.56;;;3.12;100.00
24666;BME280;29726;53.532;-1.478;2024-01-16T11:10:10;99434.41;;;3.25;100.00
24666;BME280;29726;53.532;-1.478;2024-01-16T11:12:55;99432.72;;;3.27;100.00
24666;BME280;29726;53.532;-1.478;2024-01-16T11:15:43;99437.81;;;3.29;100.00
24666;BME280;29726;53.532;-1.478;2024-01-16T11:18:31;99434.91;;;3.32;100.00
24666;BME280;29726;53.532;-1.478;2024-01-16T11:21:16;99417.72;;;3.28;100.00
24666;BME280;29726;53.532;-1.478;2024-01-16T11:24:00;99415.16;;;3.34;100.00
24666;BME280;29726;53.532;-1.478;2024-01-16T11:26:44;99403.69;;;3.35;100.00
24666;BME280;29726;53.532;-1.478;2024-01-16T11:32:42;99404.69;;;3.41;100.00
24666;BME280;29726;53.532;-1.478;2024-01-16T11:35:38;99389.56;;;3.33;100.00
24666;BME280;29726;53.532;-1.478;2024-01-16T11:38:24;99379.66;;;3.36;100.00
24666;BME280;29726;53.532;-1.478;2024-01-16T11:42:04;99396.47;;;3.50;100.00
24666;BME280;29726;53.532;-1.478;2024-01-16T11:44:43;99397.91;;;3.55;100.00
24666;BME280;29726;53.532;-1.478;2024-01-16T11:47:27;99389.47;;;3.58;100.00
24666;BME280;29726;53.532;-1.478;2024-01-16T11:50:12;99384.63;;;3.62;100.00
24666;BME280;29726;53.532;-1.478;2024-01-16T11:53:10;99362.69;;;3.59;100.00
24666;BME280;29726;53.532;-1.478;2024-01-16T11:56:26;99377.06;;;3.75;100.00
24666;BME280;29726;53.532;-1.478;2024-01-16T12:02:51;99352.94;;;3.88;100.00
24666;BME280;29726;53.532;-1.478;2024-01-16T12:05:36;99346.81;;;3.93;100.00
24666;BME280;29726;53.532;-1.478;2024-01-16T12:08:21;99325.69;;;3.99;100.00
24666;BME280;29726;53.532;-1.478;2024-01-16T12:11:07;99316.38;;;4.06;100.00
24666;BME280;29726;53.532;-1.478;2024-01-16T12:14:01;99318.41;;;4.14;100.00
24666;BME280;29726;53.532;-1.478;2024-01-16T12:16:45;99319.06;;;4.18;100.00
24666;BME280;29726;53.532;-1.478;2024-01-16T12:19:30;99308.63;;;4.22;100.00
24666;BME280;29726;53.532;-1.478;2024-01-16T12:22:14;99306.69;;;4.32;100.00
24666;BME280;29726;53.532;-1.478;2024-01-16T12:24:57;99307.19;;;4.39;100.00
24666;BME280;29726;53.532;-1.478;2024-01-16T12:27:42;99298.59;;;4.46;100.00
24666;BME280;29726;53.532;-1.478;2024-01-16T12:30:28;99275.88;;;4.51;100.00
24666;BME280;29726;53.532;-1.478;2024-01-16T12:33:13;99266.56;;;4.58;100.00
24666;BME280;29726;53.532;-1.478;2024-01-16T12:36:02;99247.53;;;4.60;100.00
24666;BME280;29726;53.532;-1.478;2024-01-16T12:38:54;99244.19;;;4.65;100.00
24666;BME280;29726;53.532;-1.478;2024-01-16T12:41:44;99232.94;;;4.68;100.00
24666;BME280;29726;53.532;-1.478;2024-01-16T12:44:30;99218.22;;;4.71;100.00
24666;BME280;29726;53.532;-1.478;2024-01-16T12:47:17;99212.41;;;4.78;100.00
24666;BME280;29726;53.532;-1.478;2024-01-16T12:50:03;99211.00;;;4.82;100.00
24666;BME280;29726;53.532;-1.478;2024-01-16T12:52:47;99212.69;;;4.89;100.00
24666;BME280;29726;53.532;-1.478;2024-01-16T12:55:35;99183.84;;;4.81;100.00
24666;BME280;29726;53.532;-1.478;2024-01-16T12:58:20;99205.31;;;4.95;100.00
24666;BME280;29726;53.532;-1.478;2024-01-16T13:01:24;99190.56;;;4.98;100.00
24666;BME280;29726;53.532;-1.478;2024-01-16T13:04:09;99191.97;;;5.02;100.00
24666;BME280;29726;53.532;-1.478;2024-01-16T13:07:01;99166.16;;;4.96;100.00
24666;BME280;29726;53.532;-1.478;2024-01-16T13:09:46;99162.31;;;5.12;100.00
24666;BME280;29726;53.532;-1.478;2024-01-16T13:12:31;99157.09;;;5.14;100.00
24666;BME280;29726;53.532;-1.478;2024-01-16T13:15:17;99146.63;;;5.18;100.00
24666;BME280;29726;53.532;-1.478;2024-01-16T13:18:01;99147.22;;;5.22;100.00
24666;BME280;29726;53.532;-1.478;2024-01-16T13:20:45;99131.25;;;5.26;100.00
24666;BME280;29726;53.532;-1.478;2024-01-16T13:23:30;99127.06;;;5.30;100.00
24666;BME280;29726;53.532;-1.478;2024-01-16T13:26:14;99117.09;;;5.33;100.00
24666;BME280;29726;53.532;-1.478;2024-01-16T13:28:58;99110.16;;;5.37;100.00
24666;BME280;29726;53.532;-1.478;2024-01-16T13:31:42;99100.44;;;5.42;100.00
24666;BME280;29726;53.532;-1.478;2024-01-16T13:34:27;99087.69;;;5.44;100.00
24666;BME280;29726;53.532;-1.478;2024-01-16T13:37:15;99091.34;;;5.50;100.00
24666;BME280;29726;53.532;-1.478;2024-01-16T13:40:03;99077.19;;;5.57;100.00
24666;BME280;29726;53.532;-1.478;2024-01-16T13:42:48;99061.19;;;5.61;100.00
24666;BME280;29726;53.532;-1.478;2024-01-16T13:45:32;99052.22;;;5.66;100.00
24666;BME280;29726;53.532;-1.478;2024-01-16T13:48:17;99050.34;;;5.72;100.00
24666;BME280;29726;53.532;-1.478;2024-01-16T13:51:02;99038.03;;;5.73;100.00
24666;BME280;29726;53.532;-1.478;2024-01-16T13:53:48;99042.50;;;5.80;100.00
24666;BME280;29726;53.532;-1.478;2024-01-16T13:56:32;99042.31;;;5.83;100.00
24666;BME280;29726;53.532;-1.478;2024-01-16T13:59:16;99042.13;;;5.87;100.00
24666;BME280;29726;53.532;-1.478;2024-01-16T14:02:01;99041.19;;;5.90;100.00
24666;BME280;29726;53.532;-1.478;2024-01-16T14:04:45;99044.28;;;5.92;100.00
24666;BME280;29726;53.532;-1.478;2024-01-16T14:07:30;99033.00;;;5.95;100.00
24666;BME280;29726;53.532;-1.478;2024-01-16T14:10:14;99042.38;;;5.98;100.00
24666;BME280;29726;53.532;-1.478;2024-01-16T14:12:59;99036.34;;;5.99;100.00
24666;BME280;29726;53.532;-1.478;2024-01-16T14:15:43;99026.34;;;6.02;100.00
24666;BME280;29726;53.532;-1.478;2024-01-16T14:18:27;99045.25;;;6.03;100.00
24666;BME280;29726;53.532;-1.478;2024-01-16T14:21:11;99032.31;;;6.09;100.00
24666;BME280;29726;53.532;-1.478;2024-01-16T14:23:55;99026.28;;;6.11;100.00
24666;BME280;29726;53.532;-1.478;2024-01-16T14:26:42;99024.56;;;6.13;100.00
24666;BME280;29726;53.532;-1.478;2024-01-16T14:29:28;99021.31;;;6.15;100.00